sensor_id;sensor_type;location;lat;lon;timestamp;temperature;humidity
30174;DHT22;16985;50.814;8.530;2023-04-25T00:01:06;6.60;99.90
30174;DHT22;16985;50.814;8.530;2023-04-25T00:03:32;6.60;99.90
30174;DHT22;16985;50.814;8.530;2023-04-25T00:06:01;6.60;99.90
30174;DHT22;16985;50.814;8.530;2023-04-25T00:08:29;6.60;99.90
30174;DHT22;16985;50.814;8.530;2023-04-25T00:10:56;6.60;99.90
30174;DHT22;16985;50.814;8.530;2023-04-25T00:13:22;6.50;99.90
30174;DHT22;16985;50.814;8.530;2023-04-25T00:15:48;6.50;99.90
30174;DHT22;16985;50.814;8.530;2023-04-25T00:18:15;6.50;99.90
30174;DHT22;16985;50.814;8.530;2023-04-25T00:20:41;6.50;99.90
30174;DHT22;16985;50.814;8.530;2023-04-25T00:23:15;6.40;99.90
30174;DHT22;16985;50.814;8.530;2023-04-25T00:25:43;6.40;99.90
30174;DHT22;16985;50.814;8.530;2023-04-25T00:28:13;6.40;99.90
30174;DHT22;16985;50.814;8.530;2023-04-25T00:30:40;6.40;99.90
30174;DHT22;16985;50.814;8.530;2023-04-25T00:33:07;6.40;99.90
30174;DHT22;16985;50.814;8.530;2023-04-25T00:35:33;6.40;99.90
30174;DHT22;16985;50.814;8.530;2023-04-25T00:37:59;6.30;99.90
30174;DHT22;16985;50.814;8.530;2023-04-25T00:40:25;6.30;99.90
30174;DHT22;16985;50.814;8.530;2023-04-25T00:42:52;6.30;99.90
30174;DHT22;16985;50.814;8.530;2023-04-25T00:45:18;6.20;99.90
30174;DHT22;16985;50.814;8.530;2023-04-25T00:47:45;6.20;99.90
30174;DHT22;16985;50.814;8.530;2023-04-25T00:50:11;6.20;99.90
30174;DHT22;16985;50.814;8.530;2023-04-25T00:52:43;6.10;99.90
30174;DHT22;16985;50.814;8.530;2023-04-25T00:55:10;6.10;99.90
30174;DHT22;16985;50.814;8.530;2023-04-25T00:57:36;6.90;99.90
30174;DHT22;16985;50.814;8.530;2023-04-25T01:00:06;6.10;99.90
30174;DHT22;16985;50.814;8.530;2023-04-25T01:02:35;6.10;99.90
30174;DHT22;16985;50.814;8.530;2023-04-25T01:05:02;6.10;99.90
30174;DHT22;16985;50.814;8.530;2023-04-25T01:07:29;6.10;99.90
30174;DHT22;16985;50.814;8.530;2023-04-25T01:09:56;6.10;99.90
30174;DHT22;16985;50.814;8.530;2023-04-25T01:12:24;6.00;99.90
30174;DHT22;16985;50.814;8.530;2023-04-25T01:14:50;6.00;99.90
30174;DHT22;16985;50.814;8.530;2023-04-25T01:17:18;6.00;99.90
30174;DHT22;16985;50.814;8.530;2023-04-25T01:19:51;6.10;99.90
30174;DHT22;16985;50.814;8.530;2023-04-25T01:22:17;6.00;99.90
30174;DHT22;16985;50.814;8.530;2023-04-25T01:24:43;6.00;99.90
30174;DHT22;16985;50.814;8.530;2023-04-25T01:27:10;5.90;99.90
30174;DHT22;16985;50.814;8.530;2023-04-25T01:29:36;5.90;99.90
30174;DHT22;16985;50.814;8.530;2023-04-25T01:32:02;5.90;99.90
30174;DHT22;16985;50.814;8.530;2023-04-25T01:34:29;5.90;99.90
30174;DHT22;16985;50.814;8.530;2023-04-25T01:36:59;6.10;99.90
30174;DHT22;16985;50.814;8.530;2023-04-25T01:39:27;5.90;99.90
30174;DHT22;16985;50.814;8.530;2023-04-25T01:41:53;5.90;99.90
30174;DHT22;16985;50.814;8.530;2023-04-25T01:44:19;5.90;99.90
30174;DHT22;16985;50.814;8.530;2023-04-25T01:46:45;5.90;99.90
30174;DHT22;16985;50.814;8.530;2023-04-25T01:49:11;5.80;99.90
30174;DHT22;16985;50.814;8.530;2023-04-25T01:51:38;5.80;99.90
30174;DHT22;16985;50.814;8.530;2023-04-25T01:54:04;5.80;99.90
30174;DHT22;16985;50.814;8.530;2023-04-25T01:56:31;5.80;99.90
30174;DHT22;16985;50.814;8.530;2023-04-25T01:58:58;5.80;99.90
30174;DHT22;16985;50.814;8.530;2023-04-25T02:01:59;5.80;99.90
30174;DHT22;16985;50.814;8.530;2023-04-25T02:04:30;5.70;99.90
30174;DHT22;16985;50.814;8.530;2023-04-25T02:06:56;5.80;99.90
30174;DHT22;16985;50.814;8.530;2023-04-25T02:09:24;5.70;99.90
30174;DHT22;16985;50.814;8.530;2023-04-25T02:11:54;5.70;99.90
30174;DHT22;16985;50.814;8.530;2023-04-25T02:14:38;5.70;99.90
30174;DHT22;16985;50.814;8.530;2023-04-25T02:17:14;5.70;99.90
30174;DHT22;16985;50.814;8.530;2023-04-25T02:19:41;5.60;99.90
30174;DHT22;16985;50.814;8.530;2023-04-25T02:22:21;5.60;99.90
30174;DHT22;16985;50.814;8.530;2023-04-25T02:24:47;5.60;99.90
30174;DHT22;16985;50.814;8.530;2023-04-25T02:27:13;5.50;99.90
30174;DHT22;16985;50.814;8.530;2023-04-25T02:29:39;5.50;99.90
30174;DHT22;16985;50.814;8.530;2023-04-25T02:32:05;3.40;99.90
30174;DHT22;16985;50.814;8.530;2023-04-25T02:34:31;5.50;99.90
30174;DHT22;16985;50.814;8.530;2023-04-25T02:36:59;5.50;99.90
30174;DHT22;16985;50.814;8.530;2023-04-25T02:39:25;5.50;99.90
30174;DHT22;16985;50.814;8.530;2023-04-25T02:42:07;5.50;99.90
30174;DHT22;16985;50.814;8.530;2023-04-25T02:44:33;5.50;99.90
30174;DHT22;16985;50.814;8.530;2023-04-25T02:46:58;5.50;99.90
30174;DHT22;16985;50.814;8.530;2023-04-25T02:49:24;5.90;99.90
30174;DHT22;16985;50.814;8.530;2023-04-25T02:51:51;5.50;99.90
30174;DHT22;16985;50.814;8.530;2023-04-25T02:54:17;5.50;99.90
30174;DHT22;16985;50.814;8.530;2023-04-25T02:56:46;5.50;99.90
30174;DHT22;16985;50.814;8.530;2023-04-25T02:59:17;5.50;99.90
30174;DHT22;16985;50.814;8.530;2023-04-25T03:01:43;5.60;99.90
30174;DHT22;16985;50.814;8.530;2023-04-25T03:04:09;5.60;99.90
30174;DHT22;16985;50.814;8.530;2023-04-25T03:06:35;5.60;99.90
30174;DHT22;16985;50.814;8.530;2023-04-25T03:09:01;5.60;99.90
30174;DHT22;16985;50.814;8.530;2023-04-25T03:11:27;5.60;99.90
30174;DHT22;16985;50.814;8.530;2023-04-25T03:13:53;5.80;99.90
30174;DHT22;16985;50.814;8.530;2023-04-25T03:16:19;5.60;99.90
30174;DHT22;16985;50.814;8.530;2023-04-25T03:18:59;5.60;99.90
30174;DHT22;16985;50.814;8.530;2023-04-25T03:21:26;5.60;99.90
30174;DHT22;16985;50.814;8.530;2023-04-25T03:24:06;5.60;99.90
30174;DHT22;16985;50.814;8.530;2023-04-25T03:26:32;5.60;99.90
30174;DHT22;16985;50.814;8.530;2023-04-25T03:28:59;5.70;99.90
30174;DHT22;16985;50.814;8.530;2023-04-25T03:31:24;5.60;99.90
30174;DHT22;16985;50.814;8.530;2023-04-25T03:33:51;5.70;99.90
30174;DHT22;16985;50.814;8.530;2023-04-25T03:36:19;5.70;99.90
30174;DHT22;16985;50.814;8.530;2023-04-25T03:38:45;5.60;99.90
30174;DHT22;16985;50.814;8.530;2023-04-25T03:41:13;5.60;99.90
30174;DHT22;16985;50.814;8.530;2023-04-25T03:43:55;5.60;99.90
30174;DHT22;16985;50.814;8.530;2023-04-25T03:46:21;5.60;99.90
30174;DHT22;16985;50.814;8.530;2023-04-25T03:49:02;5.70;99.90
30174;DHT22;16985;50.814;8.530;2023-04-25T03:51:46;5.50;99.90
30174;DHT22;16985;50.814;8.530;2023-04-25T03:54:12;5.40;99.90
30174;DHT22;16985;50.814;8.530;2023-04-25T03:56:52;5.50;99.90
30174;DHT22;16985;50.814;8.530;2023-04-25T03:59:21;5.50;99.90
30174;DHT22;16985;50.814;8.530;2023-04-25T04:01:47;5.50;99.90
30174;DHT22;16985;50.814;8.530;2023-04-25T04:04:13;6.70;99.90
30174;DHT22;16985;50.814;8.530;2023-04-25T04:09:16;5.30;99.90
30174;DHT22;16985;50.814;8.530;2023-04-25T04:11:43;5.40;99.90
30174;DHT22;16985;50.814;8.530;2023-04-25T04:14:09;5.60;99.90
30174;DHT22;16985;50.814;8.530;2023-04-25T04:16:38;3.70;99.90
30174;DHT22;16985;50.814;8.530;2023-04-25T04:19:04;5.30;99.90
30174;DHT22;16985;50.814;8.530;2023-04-25T04:21:30;5.30;99.90
30174;DHT22;16985;50.814;8.530;2023-04-25T04:23:57;5.20;99.90
30174;DHT22;16985;50.814;8.530;2023-04-25T04:26:25;5.20;99.90
30174;DHT22;16985;50.814;8.530;2023-04-25T04:29:27;5.00;99.90
30174;DHT22;16985;50.814;8.530;2023-04-25T04:32:07;5.20;99.90
30174;DHT22;16985;50.814;8.530;2023-04-25T04:34:34;5.30;99.90
30174;DHT22;16985;50.814;8.530;2023-04-25T04:37:01;5.10;99.90
30174;DHT22;16985;50.814;8.530;2023-04-25T04:42:02;5.20;99.90
30174;DHT22;16985;50.814;8.530;2023-04-25T04:47:25;5.20;99.90
30174;DHT22;16985;50.814;8.530;2023-04-25T04:50:12;5.20;99.90
30174;DHT22;16985;50.814;8.530;2023-04-25T04:52:56;5.20;99.90
30174;DHT22;16985;50.814;8.530;2023-04-25T04:55:45;5.20;99.90
30174;DHT22;16985;50.814;8.530;2023-04-25T04:58:30;5.20;99.90
30174;DHT22;16985;50.814;8.530;2023-04-25T05:06:58;5.00;99.90
30174;DHT22;16985;50.814;8.530;2023-04-25T05:09:27;5.10;99.90
30174;DHT22;16985;50.814;8.530;2023-04-25T05:20:23;5.20;99.90
30174;DHT22;16985;50.814;8.530;2023-04-25T05:23:15;5.20;99.90
30174;DHT22;16985;50.814;8.530;2023-04-25T05:58:28;5.50;99.90
30174;DHT22;16985;50.814;8.530;2023-04-25T06:10:42;6.40;99.90
30174;DHT22;16985;50.814;8.530;2023-04-25T06:13:08;5.90;99.90
30174;DHT22;16985;50.814;8.530;2023-04-25T06:20:28;5.90;99.90
30174;DHT22;16985;50.814;8.530;2023-04-25T06:27:58;6.40;99.90
30174;DHT22;16985;50.814;8.530;2023-04-25T06:42:44;6.60;99.90
30174;DHT22;16985;50.814;8.530;2023-04-25T06:47:57;6.80;99.90
30174;DHT22;16985;50.814;8.530;2023-04-25T06:50:23;6.60;99.90
30174;DHT22;16985;50.814;8.530;2023-04-25T06:52:49;6.70;99.90
30174;DHT22;16985;50.814;8.530;2023-04-25T06:55:15;6.90;99.90
30174;DHT22;16985;50.814;8.530;2023-04-25T07:00:51;6.80;99.90
30174;DHT22;16985;50.814;8.530;2023-04-25T07:03:18;6.80;99.90
30174;DHT22;16985;50.814;8.530;2023-04-25T07:08:12;7.10;99.90
30174;DHT22;16985;50.814;8.530;2023-04-25T07:13:04;7.10;99.90
30174;DHT22;16985;50.814;8.530;2023-04-25T07:15:30;10.00;99.90
30174;DHT22;16985;50.814;8.530;2023-04-25T07:17:57;7.30;99.90
30174;DHT22;16985;50.814;8.530;2023-04-25T07:20:23;7.30;99.90
30174;DHT22;16985;50.814;8.530;2023-04-25T07:22:49;7.30;99.90
30174;DHT22;16985;50.814;8.530;2023-04-25T07:25:16;7.40;99.90
30174;DHT22;16985;50.814;8.530;2023-04-25T07:27:42;7.40;99.90
30174;DHT22;16985;50.814;8.530;2023-04-25T07:30:15;7.40;99.90
30174;DHT22;16985;50.814;8.530;2023-04-25T07:32:41;7.50;99.90
30174;DHT22;16985;50.814;8.530;2023-04-25T07:35:07;7.50;99.90
30174;DHT22;16985;50.814;8.530;2023-04-25T07:37:36;7.60;99.90
30174;DHT22;16985;50.814;8.530;2023-04-25T07:40:09;7.60;99.90
30174;DHT22;16985;50.814;8.530;2023-04-25T07:42:38;7.30;99.90
30174;DHT22;16985;50.814;8.530;2023-04-25T07:45:06;7.60;99.90
30174;DHT22;16985;50.814;8.530;2023-04-25T07:47:32;7.60;99.90
30174;DHT22;16985;50.814;8.530;2023-04-25T07:52:24;7.50;99.90
30174;DHT22;16985;50.814;8.530;2023-04-25T07:54:58;8.00;99.90
30174;DHT22;16985;50.814;8.530;2023-04-25T07:57:32;7.60;99.90
30174;DHT22;16985;50.814;8.530;2023-04-25T07:59:58;7.60;99.90
30174;DHT22;16985;50.814;8.530;2023-04-25T08:02:23;7.70;99.90
30174;DHT22;16985;50.814;8.530;2023-04-25T08:04:51;7.70;99.90
30174;DHT22;16985;50.814;8.530;2023-04-25T08:07:18;7.80;99.90
30174;DHT22;16985;50.814;8.530;2023-04-25T08:09:49;7.90;99.90
30174;DHT22;16985;50.814;8.530;2023-04-25T08:12:22;7.90;99.90
30174;DHT22;16985;50.814;8.530;2023-04-25T08:14:48;8.00;99.90
30174;DHT22;16985;50.814;8.530;2023-04-25T08:17:14;8.10;99.90
30174;DHT22;16985;50.814;8.530;2023-04-25T08:19:41;8.10;99.90
30174;DHT22;16985;50.814;8.530;2023-04-25T08:22:13;8.10;99.90
30174;DHT22;16985;50.814;8.530;2023-04-25T08:24:50;8.20;99.90
30174;DHT22;16985;50.814;8.530;2023-04-25T08:27:18;8.20;99.10
30174;DHT22;16985;50.814;8.530;2023-04-25T08:29:44;8.00;99.90
30174;DHT22;16985;50.814;8.530;2023-04-25T08:32:25;8.10;97.90
30174;DHT22;16985;50.814;8.530;2023-04-25T08:35:29;8.10;98.10
30174;DHT22;16985;50.814;8.530;2023-04-25T08:37:55;7.70;99.90
30174;DHT22;16985;50.814;8.530;2023-04-25T08:40:22;8.50;99.90
30174;DHT22;16985;50.814;8.530;2023-04-25T08:42:57;8.20;97.20
30174;DHT22;16985;50.814;8.530;2023-04-25T08:45:27;8.30;97.00
30174;DHT22;16985;50.814;8.530;2023-04-25T08:47:54;8.00;99.90
30174;DHT22;16985;50.814;8.530;2023-04-25T08:50:22;8.20;99.90
30174;DHT22;16985;50.814;8.530;2023-04-25T08:52:53;8.40;99.90
30174;DHT22;16985;50.814;8.530;2023-04-25T08:55:21;8.20;99.90
30174;DHT22;16985;50.814;8.530;2023-04-25T08:57:50;8.10;99.90
30174;DHT22;16985;50.814;8.530;2023-04-25T09:00:18;8.10;93.20
30174;DHT22;16985;50.814;8.530;2023-04-25T09:02:46;8.10;93.50
30174;DHT22;16985;50.814;8.530;2023-04-25T09:05:15;8.10;99.90
30174;DHT22;16985;50.814;8.530;2023-04-25T09:07:41;8.10;99.90
30174;DHT22;16985;50.814;8.530;2023-04-25T09:10:07;8.60;94.30
30174;DHT22;16985;50.814;8.530;2023-04-25T09:12:36;8.20;93.70
30174;DHT22;16985;50.814;8.530;2023-04-25T09:15:10;8.30;93.50
30174;DHT22;16985;50.814;8.530;2023-04-25T09:18:02;8.60;99.90
30174;DHT22;16985;50.814;8.530;2023-04-25T09:20:44;8.50;93.50
30174;DHT22;16985;50.814;8.530;2023-04-25T09:23:10;8.50;99.90
30174;DHT22;16985;50.814;8.530;2023-04-25T09:25:37;8.70;99.90
30174;DHT22;16985;50.814;8.530;2023-04-25T09:28:09;8.70;93.10
30174;DHT22;16985;50.814;8.530;2023-04-25T09:33:12;8.80;95.80
30174;DHT22;16985;50.814;8.530;2023-04-25T09:35:43;8.80;92.60
30174;DHT22;16985;50.814;8.530;2023-04-25T09:38:18;8.80;91.70
30174;DHT22;16985;50.814;8.530;2023-04-25T09:41:08;8.80;92.00
30174;DHT22;16985;50.814;8.530;2023-04-25T09:43:39;8.50;98.20
30174;DHT22;16985;50.814;8.530;2023-04-25T09:46:10;8.80;98.00
30174;DHT22;16985;50.814;8.530;2023-04-25T09:48:39;8.70;98.00
30174;DHT22;16985;50.814;8.530;2023-04-25T09:51:11;8.80;90.30
30174;DHT22;16985;50.814;8.530;2023-04-25T09:53:45;8.90;97.80
30174;DHT22;16985;50.814;8.530;2023-04-25T09:56:35;8.80;93.00
30174;DHT22;16985;50.814;8.530;2023-04-25T09:59:05;6.40;88.30
30174;DHT22;16985;50.814;8.530;2023-04-25T10:01:33;8.80;94.80
30174;DHT22;16985;50.814;8.530;2023-04-25T10:04:11;8.90;91.30
30174;DHT22;16985;50.814;8.530;2023-04-25T10:06:56;9.10;98.40
30174;DHT22;16985;50.814;8.530;2023-04-25T10:09:25;9.50;97.30
30174;DHT22;16985;50.814;8.530;2023-04-25T10:11:52;9.40;90.10
30174;DHT22;16985;50.814;8.530;2023-04-25T10:14:34;9.50;88.70
30174;DHT22;16985;50.814;8.530;2023-04-25T10:17:00;9.40;95.50
30174;DHT22;16985;50.814;8.530;2023-04-25T10:19:27;9.60;95.50
30174;DHT22;16985;50.814;8.530;2023-04-25T10:22:14;9.60;92.60
30174;DHT22;16985;50.814;8.530;2023-04-25T10:24:44;9.60;94.40
30174;DHT22;16985;50.814;8.530;2023-04-25T10:27:12;9.50;92.20
30174;DHT22;16985;50.814;8.530;2023-04-25T10:29:38;9.40;83.60
30174;DHT22;16985;50.814;8.530;2023-04-25T10:34:41;9.20;94.30
30174;DHT22;16985;50.814;8.530;2023-04-25T10:37:11;9.30;84.20
30174;DHT22;16985;50.814;8.530;2023-04-25T10:39:39;9.40;91.80
30174;DHT22;16985;50.814;8.530;2023-04-25T10:42:06;9.50;89.40
30174;DHT22;16985;50.814;8.530;2023-04-25T10:44:37;9.40;84.70
30174;DHT22;16985;50.814;8.530;2023-04-25T10:47:06;9.40;84.50
30174;DHT22;16985;50.814;8.530;2023-04-25T10:49:41;9.40;93.80
30174;DHT22;16985;50.814;8.530;2023-04-25T10:52:18;9.30;83.10
30174;DHT22;16985;50.814;8.530;2023-04-25T10:54:52;9.50;94.10
30174;DHT22;16985;50.814;8.530;2023-04-25T11:02:45;9.40;83.30
30174;DHT22;16985;50.814;8.530;2023-04-25T11:05:31;9.40;94.20
30174;DHT22;16985;50.814;8.530;2023-04-25T11:07:59;9.50;89.40
30174;DHT22;16985;50.814;8.530;2023-04-25T11:10:29;9.50;84.10
30174;DHT22;16985;50.814;8.530;2023-04-25T11:12:57;9.60;90.30
30174;DHT22;16985;50.814;8.530;2023-04-25T11:17:54;9.80;83.50
30174;DHT22;16985;50.814;8.530;2023-04-25T11:22:47;9.90;92.40
30174;DHT22;16985;50.814;8.530;2023-04-25T11:25:14;10.10;83.70
30174;DHT22;16985;50.814;8.530;2023-04-25T11:27:51;9.90;90.60
30174;DHT22;16985;50.814;8.530;2023-04-25T11:30:19;10.10;79.10
30174;DHT22;16985;50.814;8.530;2023-04-25T11:32:46;10.20;79.70
30174;DHT22;16985;50.814;8.530;2023-04-25T11:35:12;10.10;78.90
30174;DHT22;16985;50.814;8.530;2023-04-25T11:37:39;10.10;78.40
30174;DHT22;16985;50.814;8.530;2023-04-25T11:40:06;10.10;77.50
30174;DHT22;16985;50.814;8.530;2023-04-25T11:42:32;10.10;78.40
30174;DHT22;16985;50.814;8.530;2023-04-25T11:44:59;10.10;79.00
30174;DHT22;16985;50.814;8.530;2023-04-25T11:47:30;10.10;78.90
30174;DHT22;16985;50.814;8.530;2023-04-25T11:49:58;7.70;77.20
30174;DHT22;16985;50.814;8.530;2023-04-25T11:52:35;10.70;80.00
30174;DHT22;16985;50.814;8.530;2023-04-25T11:55:03;10.00;80.00
30174;DHT22;16985;50.814;8.530;2023-04-25T11:57:31;10.00;80.30
30174;DHT22;16985;50.814;8.530;2023-04-25T12:00:07;9.90;80.90
30174;DHT22;16985;50.814;8.530;2023-04-25T12:02:40;10.00;81.20
30174;DHT22;16985;50.814;8.530;2023-04-25T12:05:08;12.60;82.80
30174;DHT22;16985;50.814;8.530;2023-04-25T12:07:35;9.80;82.10
30174;DHT22;16985;50.814;8.530;2023-04-25T12:10:06;9.70;81.80
30174;DHT22;16985;50.814;8.530;2023-04-25T12:12:37;9.70;81.90
30174;DHT22;16985;50.814;8.530;2023-04-25T12:17:42;9.50;82.00
30174;DHT22;16985;50.814;8.530;2023-04-25T12:20:12;9.40;82.50
30174;DHT22;16985;50.814;8.530;2023-04-25T12:22:44;9.50;83.20
30174;DHT22;16985;50.814;8.530;2023-04-25T12:30:59;9.80;83.10
30174;DHT22;16985;50.814;8.530;2023-04-25T12:33:28;10.00;83.10
30174;DHT22;16985;50.814;8.530;2023-04-25T12:35:55;10.10;81.90
30174;DHT22;16985;50.814;8.530;2023-04-25T12:38:26;10.20;80.60
30174;DHT22;16985;50.814;8.530;2023-04-25T12:40:53;10.20;80.00
30174;DHT22;16985;50.814;8.530;2023-04-25T12:43:19;10.20;79.50
30174;DHT22;16985;50.814;8.530;2023-04-25T12:45:49;10.10;79.30
30174;DHT22;16985;50.814;8.530;2023-04-25T12:48:16;10.10;79.00
30174;DHT22;16985;50.814;8.530;2023-04-25T12:50:43;10.00;78.90
30174;DHT22;16985;50.814;8.530;2023-04-25T12:53:09;10.00;78.90
30174;DHT22;16985;50.814;8.530;2023-04-25T12:55:35;9.90;78.40
30174;DHT22;16985;50.814;8.530;2023-04-25T12:58:01;10.00;78.90
30174;DHT22;16985;50.814;8.530;2023-04-25T13:00:29;10.00;78.90
30174;DHT22;16985;50.814;8.530;2023-04-25T13:02:55;10.20;78.20
30174;DHT22;16985;50.814;8.530;2023-04-25T13:05:21;10.20;77.20
30174;DHT22;16985;50.814;8.530;2023-04-25T13:07:46;10.20;76.60
30174;DHT22;16985;50.814;8.530;2023-04-25T13:10:12;10.20;76.60
30174;DHT22;16985;50.814;8.530;2023-04-25T13:12:38;10.10;76.70
30174;DHT22;16985;50.814;8.530;2023-04-25T13:15:04;10.00;76.50
30174;DHT22;16985;50.814;8.530;2023-04-25T13:17:30;9.90;76.60
30174;DHT22;16985;50.814;8.530;2023-04-25T13:19:56;9.90;76.50
30174;DHT22;16985;50.814;8.530;2023-04-25T13:22:22;9.90;76.20
30174;DHT22;16985;50.814;8.530;2023-04-25T13:24:48;10.00;77.00
30174;DHT22;16985;50.814;8.530;2023-04-25T13:27:13;10.20;77.90
30174;DHT22;16985;50.814;8.530;2023-04-25T13:29:39;9.90;77.60
30174;DHT22;16985;50.814;8.530;2023-04-25T13:32:06;10.00;77.00
30174;DHT22;16985;50.814;8.530;2023-04-25T13:34:33;9.90;76.70
30174;DHT22;16985;50.814;8.530;2023-04-25T13:36:58;10.00;77.20
30174;DHT22;16985;50.814;8.530;2023-04-25T13:39:24;10.10;77.30
30174;DHT22;16985;50.814;8.530;2023-04-25T13:41:50;10.20;76.90
30174;DHT22;16985;50.814;8.530;2023-04-25T13:44:16;10.20;74.30
30174;DHT22;16985;50.814;8.530;2023-04-25T13:46:42;10.30;74.40
30174;DHT22;16985;50.814;8.530;2023-04-25T13:49:07;10.40;75.00
30174;DHT22;16985;50.814;8.530;2023-04-25T13:51:49;10.40;74.70
30174;DHT22;16985;50.814;8.530;2023-04-25T13:54:14;10.50;75.10
30174;DHT22;16985;50.814;8.530;2023-04-25T13:56:40;10.60;75.50
30174;DHT22;16985;50.814;8.530;2023-04-25T13:59:07;10.80;75.80
30174;DHT22;16985;50.814;8.530;2023-04-25T14:01:33;11.00;75.50
30174;DHT22;16985;50.814;8.530;2023-04-25T14:04:01;11.20;75.00
30174;DHT22;16985;50.814;8.530;2023-04-25T14:06:29;11.40;74.80
30174;DHT22;16985;50.814;8.530;2023-04-25T14:08:56;11.50;74.40
30174;DHT22;16985;50.814;8.530;2023-04-25T14:11:22;11.50;73.80
30174;DHT22;16985;50.814;8.530;2023-04-25T14:13:47;11.60;73.70
30174;DHT22;16985;50.814;8.530;2023-04-25T14:16:29;11.60;73.90
30174;DHT22;16985;50.814;8.530;2023-04-25T14:18:55;11.50;74.20
30174;DHT22;16985;50.814;8.530;2023-04-25T14:21:21;11.40;72.80
30174;DHT22;16985;50.814;8.530;2023-04-25T14:23:47;11.30;71.90
30174;DHT22;16985;50.814;8.530;2023-04-25T14:26:13;11.20;72.20
30174;DHT22;16985;50.814;8.530;2023-04-25T14:28:39;11.00;72.20
30174;DHT22;16985;50.814;8.530;2023-04-25T14:31:05;10.90;72.30
30174;DHT22;16985;50.814;8.530;2023-04-25T14:33:45;10.80;72.70
30174;DHT22;16985;50.814;8.530;2023-04-25T14:36:11;10.70;73.60
30174;DHT22;16985;50.814;8.530;2023-04-25T14:38:37;10.60;73.80
30174;DHT22;16985;50.814;8.530;2023-04-25T14:41:03;10.60;74.40
30174;DHT22;16985;50.814;8.530;2023-04-25T14:43:29;10.60;73.90
30174;DHT22;16985;50.814;8.530;2023-04-25T14:45:54;10.70;74.70
30174;DHT22;16985;50.814;8.530;2023-04-25T14:48:21;10.90;73.90
30174;DHT22;16985;50.814;8.530;2023-04-25T14:50:47;11.00;73.30
30174;DHT22;16985;50.814;8.530;2023-04-25T14:53:13;11.20;73.40
30174;DHT22;16985;50.814;8.530;2023-04-25T14:55:39;11.30;73.70
30174;DHT22;16985;50.814;8.530;2023-04-25T14:58:05;11.40;71.90
30174;DHT22;16985;50.814;8.530;2023-04-25T15:00:32;11.60;72.00
30174;DHT22;16985;50.814;8.530;2023-04-25T15:02:58;11.60;71.20
30174;DHT22;16985;50.814;8.530;2023-04-25T15:05:24;11.90;71.30
30174;DHT22;16985;50.814;8.530;2023-04-25T15:07:51;11.80;70.80
30174;DHT22;16985;50.814;8.530;2023-04-25T15:10:19;11.80;70.60
30174;DHT22;16985;50.814;8.530;2023-04-25T15:12:46;11.80;69.40
30174;DHT22;16985;50.814;8.530;2023-04-25T15:15:12;11.60;68.80
30174;DHT22;16985;50.814;8.530;2023-04-25T15:17:41;11.50;68.50
30174;DHT22;16985;50.814;8.530;2023-04-25T15:20:08;11.40;68.40
30174;DHT22;16985;50.814;8.530;2023-04-25T15:22:42;11.30;69.10
30174;DHT22;16985;50.814;8.530;2023-04-25T15:25:09;11.30;69.50
30174;DHT22;16985;50.814;8.530;2023-04-25T15:27:39;11.30;69.70
30174;DHT22;16985;50.814;8.530;2023-04-25T15:30:13;11.30;69.00
30174;DHT22;16985;50.814;8.530;2023-04-25T15:32:45;11.30;69.20
30174;DHT22;16985;50.814;8.530;2023-04-25T15:35:11;12.00;69.50
30174;DHT22;16985;50.814;8.530;2023-04-25T15:37:38;11.30;68.90
30174;DHT22;16985;50.814;8.530;2023-04-25T15:40:10;11.30;68.60
30174;DHT22;16985;50.814;8.530;2023-04-25T15:42:43;11.20;68.20
30174;DHT22;16985;50.814;8.530;2023-04-25T15:45:10;11.20;68.70
30174;DHT22;16985;50.814;8.530;2023-04-25T15:47:37;11.10;68.70
30174;DHT22;16985;50.814;8.530;2023-04-25T15:50:05;11.10;68.90
30174;DHT22;16985;50.814;8.530;2023-04-25T15:52:33;11.00;69.30
30174;DHT22;16985;50.814;8.530;2023-04-25T15:54:59;11.60;69.70
30174;DHT22;16985;50.814;8.530;2023-04-25T15:57:29;10.20;68.40
30174;DHT22;16985;50.814;8.530;2023-04-25T15:59:55;10.80;69.00
30174;DHT22;16985;50.814;8.530;2023-04-25T16:02:21;10.80;69.60
30174;DHT22;16985;50.814;8.530;2023-04-25T16:04:47;10.70;69.10
30174;DHT22;16985;50.814;8.530;2023-04-25T16:07:13;10.80;70.10
30174;DHT22;16985;50.814;8.530;2023-04-25T16:09:39;10.80;69.90
30174;DHT22;16985;50.814;8.530;2023-04-25T16:12:07;10.90;69.80
30174;DHT22;16985;50.814;8.530;2023-04-25T16:14:34;10.90;69.20
30174;DHT22;16985;50.814;8.530;2023-04-25T16:17:00;10.60;69.40
30174;DHT22;16985;50.814;8.530;2023-04-25T16:19:26;10.90;69.80
30174;DHT22;16985;50.814;8.530;2023-04-25T16:21:53;10.90;69.70
30174;DHT22;16985;50.814;8.530;2023-04-25T16:24:34;10.90;69.50
30174;DHT22;16985;50.814;8.530;2023-04-25T16:27:00;11.20;70.40
30174;DHT22;16985;50.814;8.530;2023-04-25T16:29:28;10.80;69.60
30174;DHT22;16985;50.814;8.530;2023-04-25T16:31:54;11.60;70.80
30174;DHT22;16985;50.814;8.530;2023-04-25T16:34:20;10.70;70.80
30174;DHT22;16985;50.814;8.530;2023-04-25T16:36:48;10.70;71.00
30174;DHT22;16985;50.814;8.530;2023-04-25T16:39:14;10.70;71.30
30174;DHT22;16985;50.814;8.530;2023-04-25T16:41:42;10.60;71.50
30174;DHT22;16985;50.814;8.530;2023-04-25T16:44:07;10.60;71.90
30174;DHT22;16985;50.814;8.530;2023-04-25T16:46:33;10.50;71.60
30174;DHT22;16985;50.814;8.530;2023-04-25T16:48:59;10.50;72.10
30174;DHT22;16985;50.814;8.530;2023-04-25T16:51:26;10.40;72.70
30174;DHT22;16985;50.814;8.530;2023-04-25T16:53:52;10.30;73.40
30174;DHT22;16985;50.814;8.530;2023-04-25T16:56:19;10.30;74.10
30174;DHT22;16985;50.814;8.530;2023-04-25T16:58:45;10.20;74.50
30174;DHT22;16985;50.814;8.530;2023-04-25T17:01:11;10.10;74.90
30174;DHT22;16985;50.814;8.530;2023-04-25T17:03:40;10.00;75.50
30174;DHT22;16985;50.814;8.530;2023-04-25T17:06:06;9.90;75.80
30174;DHT22;16985;50.814;8.530;2023-04-25T17:08:32;9.80;76.10
30174;DHT22;16985;50.814;8.530;2023-04-25T17:10:58;9.70;76.40
30174;DHT22;16985;50.814;8.530;2023-04-25T17:13:24;9.60;77.10
30174;DHT22;16985;50.814;8.530;2023-04-25T17:15:50;9.60;77.70
30174;DHT22;16985;50.814;8.530;2023-04-25T17:18:16;9.50;78.00
30174;DHT22;16985;50.814;8.530;2023-04-25T17:20:42;9.50;78.40
30174;DHT22;16985;50.814;8.530;2023-04-25T17:23:08;9.40;78.20
30174;DHT22;16985;50.814;8.530;2023-04-25T17:25:33;9.30;78.40
30174;DHT22;16985;50.814;8.530;2023-04-25T17:28:00;9.30;78.40
30174;DHT22;16985;50.814;8.530;2023-04-25T17:30:25;9.30;78.50
30174;DHT22;16985;50.814;8.530;2023-04-25T17:32:52;7.40;77.80
30174;DHT22;16985;50.814;8.530;2023-04-25T17:35:17;9.30;78.20
30174;DHT22;16985;50.814;8.530;2023-04-25T17:37:43;9.50;77.30
30174;DHT22;16985;50.814;8.530;2023-04-25T17:40:10;9.20;76.00
30174;DHT22;16985;50.814;8.530;2023-04-25T17:42:39;9.10;76.30
30174;DHT22;16985;50.814;8.530;2023-04-25T17:45:06;9.00;76.10
30174;DHT22;16985;50.814;8.530;2023-04-25T17:47:33;8.90;75.20
30174;DHT22;16985;50.814;8.530;2023-04-25T17:49:59;8.80;75.70
30174;DHT22;16985;50.814;8.530;2023-04-25T17:52:25;8.70;76.20
30174;DHT22;16985;50.814;8.530;2023-04-25T17:54:51;8.70;76.50
30174;DHT22;16985;50.814;8.530;2023-04-25T17:57:17;8.70;76.40